Accueil
METAR-TAF:

METAR-TAF

Aéroports :

Grande Canarie, Espagne

Aéroport de Gran Canaria

latitude: 27-56N, longitude: 015-23W, altitude: 23 m

Observation

Le bulletin a été fait il y a 21 minutes, à 01:30 UTC
Vent 23 kt de nord avec des rafales jusqu'à 34 kt, variant entre nord/nord-ouest et nord/nord-est
Température 26°C
Humidité 51%
Pression 1015 hPa
Visibilité 10 km ou plus
Quelques nuages à une hauteur de 2000 ft

METAR: GCLP 190130Z 36023G34KT 330V030 9999 FEW020 26/15 Q1015 NOSIG

Heure: 02:51 (01:51 UTC)

Prévision

Le bulletin a été fait il y a 5 heures et 51 minutes, à 20:00 UTC
Prévision valable du 18 à 21 UTC au 19 à 21 UTC
Vent 20 kt de nord
Visibilité 10 km ou plus
Quelques nuages à une hauteur de 2000 ft
Probabilité 30% :
Temporairement
du 18 à 21 UTC au 19 à 21 UTC
Vent 20 kt de nord avec des rafales jusqu'à 30 kt

TAF: GCLP 182000Z 1821/1921 01020KT 9999 FEW020 TX33/1913Z TN24/1905Z PROB30 TEMPO 1821/1921 01020G30KT

Observations et prévisions météorologiques de plus de 4000 aéroports (messages METAR et TAF).

Les stations disponibles sont représentées par des disques jaunes et rouges sur la carte.

Passer la souris dessus pour voir le nom de la station.

Cliquer dessus pour voir les observations et prévisions météorologiques.

Pour changer de carte: cliquez sur les boutons verts avec une croix noire pour zoomer, sur le bouton vert avec un tiret pour effectuer un zoom arrière, ou sur les flèches vertes pour les cartes adjacentes.


METAR-TAF: